createdAt,value
2023-02-06T00:03:17.516Z,20.50
2023-02-06T00:08:22.176Z,18.67
2023-02-06T00:18:32.783Z,18.67
2023-02-06T00:23:37.354Z,17.45
2023-02-06T00:33:47.685Z,15.75
2023-02-06T00:38:52.247Z,17.42
2023-02-06T00:43:58.739Z,18.27
2023-02-06T00:49:03.397Z,17.08
2023-02-06T00:54:08.456Z,20.60
2023-02-06T00:59:14.501Z,22.00
2023-02-06T01:04:18.929Z,19.63
2023-02-06T01:14:28.592Z,18.00
2023-02-06T01:19:33.309Z,19.65
2023-02-06T01:24:38.082Z,17.45
2023-02-06T01:29:43.677Z,19.48
2023-02-06T01:34:48.624Z,18.05
2023-02-06T01:39:52.910Z,17.17
2023-02-06T01:45:43.269Z,18.92
2023-02-06T01:50:52.665Z,19.33
2023-02-06T01:56:02.111Z,17.92
2023-02-06T02:01:09.445Z,18.00
2023-02-06T02:06:17.436Z,18.55
2023-02-06T02:11:24.845Z,14.40
2023-02-06T02:16:44.949Z,13.43
2023-02-06T02:22:32.805Z,15.55
2023-02-06T02:28:18.931Z,12.65
2023-02-06T02:33:56.221Z,13.70
2023-02-06T02:39:10.604Z,19.10
2023-02-06T02:44:27.436Z,25.10
2023-02-06T02:49:36.608Z,27.35
2023-02-06T02:54:42.872Z,31.35
2023-02-06T02:59:50.428Z,30.70
2023-02-06T03:04:58.924Z,29.48
2023-02-06T03:10:19.347Z,30.75
2023-02-06T03:15:31.199Z,30.15
2023-02-06T03:20:40.116Z,28.10
2023-02-06T03:25:48.775Z,29.05
2023-02-06T03:30:57.340Z,30.35
2023-02-06T03:36:03.738Z,31.30
2023-02-06T03:41:10.056Z,32.58
2023-02-06T03:46:16.858Z,31.08
2023-02-06T03:51:26.678Z,32.05
2023-02-06T03:56:38.118Z,31.08
2023-02-06T04:01:45.570Z,30.77
2023-02-06T04:06:50.031Z,29.45
2023-02-06T04:11:55.791Z,29.42
2023-02-06T04:16:59.925Z,29.17
2023-02-06T04:22:04.861Z,28.83
2023-02-06T04:27:12.473Z,27.10
2023-02-06T04:32:16.782Z,31.17
2023-02-06T04:42:27.292Z,28.70
2023-02-06T04:47:31.435Z,28.65
2023-02-06T04:52:35.683Z,28.92
2023-02-06T05:02:45.406Z,28.65
2023-02-06T05:07:49.842Z,29.98
2023-02-06T05:12:56.358Z,29.52
2023-02-06T05:18:00.691Z,28.73
2023-02-06T05:28:11.004Z,26.80
2023-02-06T05:33:15.547Z,25.27
2023-02-06T05:38:20.462Z,24.65
2023-02-06T05:43:26.694Z,24.33
2023-02-06T05:48:31.168Z,24.15
2023-02-06T05:53:35.669Z,23.92
2023-02-06T05:58:41.485Z,26.38
2023-02-06T06:03:45.685Z,27.45
2023-02-06T06:13:55.439Z,26.70
2023-02-06T06:18:59.945Z,27.75
2023-02-06T06:24:05.021Z,26.95
2023-02-06T06:29:10.707Z,25.73
2023-02-06T06:34:15.085Z,26.85
2023-02-06T06:39:19.405Z,25.35
2023-02-06T06:44:25.650Z,26.00
2023-02-06T06:49:30.126Z,26.70
2023-02-06T06:54:34.710Z,24.00
2023-02-06T06:59:40.686Z,23.35
2023-02-06T07:04:45.242Z,23.85
2023-02-06T07:09:50.077Z,23.20
2023-02-06T07:14:55.927Z,21.05
2023-02-06T07:20:00.527Z,22.65
2023-02-06T07:25:05.812Z,24.00
2023-02-06T07:30:13.261Z,27.20
2023-02-06T07:35:18.002Z,28.65
2023-02-06T07:40:23.364Z,27.60
2023-02-06T07:45:29.925Z,28.35
2023-02-06T07:50:34.233Z,21.50
2023-02-06T07:55:39.266Z,23.52
2023-02-06T08:00:46.013Z,30.55
2023-02-06T08:05:50.530Z,19.40
2023-02-06T08:10:54.734Z,18.33
2023-02-06T08:16:03.970Z,21.63
2023-02-06T08:21:12.481Z,14.07
2023-02-06T08:26:19.461Z,14.38
2023-02-06T08:31:28.745Z,14.38
2023-02-06T08:36:34.378Z,14.85
2023-02-06T08:41:41.072Z,20.15
2023-02-06T08:46:52.330Z,17.50
2023-02-06T08:51:58.684Z,18.75
2023-02-06T09:02:11.552Z,18.95
2023-02-06T09:07:17.310Z,18.88
2023-02-06T09:12:21.815Z,20.40
2023-02-06T09:17:31.456Z,19.50
2023-02-06T09:22:35.904Z,18.60
2023-02-06T09:27:40.263Z,20.17
2023-02-06T09:37:50.200Z,16.45
2023-02-06T09:42:55.635Z,16.08
2023-02-06T09:48:15.534Z,17.63
2023-02-06T09:53:31.301Z,17.75
2023-02-06T09:58:43.477Z,16.50
2023-02-06T10:04:32.238Z,16.75
2023-02-06T10:09:45.866Z,16.23
2023-02-06T10:14:55.279Z,16.13
2023-02-06T10:20:05.294Z,16.40
2023-02-06T10:25:22.316Z,16.70
2023-02-06T10:30:42.364Z,18.25
2023-02-06T10:36:00.984Z,20.92
2023-02-06T10:41:14.652Z,17.42
2023-02-06T10:46:44.032Z,8.87
2023-02-06T10:51:56.237Z,8.20
2023-02-06T10:57:03.200Z,8.25
2023-02-06T11:02:22.637Z,7.75
2023-02-06T11:07:35.866Z,7.30
2023-02-06T11:12:44.446Z,9.50
2023-02-06T11:17:49.300Z,11.25
2023-02-06T11:22:55.616Z,9.75
2023-02-06T11:28:01.649Z,12.40
2023-02-06T11:33:08.900Z,12.30
2023-02-06T11:38:20.884Z,11.50
2023-02-06T11:43:28.276Z,12.00
2023-02-06T11:48:37.721Z,11.32
2023-02-06T11:53:59.977Z,13.90
2023-02-06T11:59:08.002Z,12.23
2023-02-06T12:04:24.645Z,11.70
2023-02-06T12:09:30.581Z,12.73
2023-02-06T12:14:42.834Z,12.18
2023-02-06T12:19:52.984Z,12.82
2023-02-06T12:25:00.164Z,14.00
2023-02-06T12:30:23.192Z,12.68
2023-02-06T12:35:41.206Z,13.38
2023-02-06T12:40:56.792Z,11.40
2023-02-06T12:46:09.016Z,12.18
2023-02-06T12:51:21.455Z,12.68
2023-02-06T12:56:36.682Z,12.88
2023-02-06T13:06:58.869Z,12.55
2023-02-06T13:12:15.647Z,12.10
2023-02-06T13:17:23.749Z,12.82
2023-02-06T13:22:51.046Z,12.02
2023-02-06T13:27:58.236Z,12.40
2023-02-06T13:33:15.206Z,12.40
2023-02-06T13:38:42.513Z,12.95
2023-02-06T13:43:55.240Z,11.30
2023-02-06T13:49:48.972Z,11.55
2023-02-06T13:55:13.595Z,12.23
2023-02-06T14:00:25.930Z,11.38
2023-02-06T14:05:42.444Z,12.07
2023-02-06T14:11:14.640Z,13.30
2023-02-06T14:16:38.067Z,12.60
2023-02-06T14:21:51.790Z,13.10
2023-02-06T14:27:16.353Z,12.23
2023-02-06T14:32:44.290Z,11.50
2023-02-06T14:38:22.569Z,10.43
2023-02-06T14:43:31.529Z,9.93
2023-02-06T14:48:41.391Z,10.70
2023-02-06T14:53:54.491Z,9.68
2023-02-06T14:59:15.237Z,10.35
2023-02-06T15:04:24.422Z,10.82
2023-02-06T15:09:32.954Z,11.13
2023-02-06T15:14:50.797Z,11.88
2023-02-06T15:19:56.411Z,12.25
2023-02-06T15:25:24.698Z,13.38
2023-02-06T15:30:29.929Z,12.75
2023-02-06T15:35:40.396Z,13.95
2023-02-06T15:40:48.043Z,13.32
2023-02-06T15:45:55.849Z,14.00
2023-02-06T15:51:21.377Z,14.35
2023-02-06T15:56:30.077Z,14.05
2023-02-06T16:01:40.048Z,14.20
2023-02-06T16:06:47.808Z,15.48
2023-02-06T16:11:56.213Z,15.65
2023-02-06T16:17:05.665Z,15.07
2023-02-06T16:22:27.413Z,16.13
2023-02-06T16:27:35.003Z,16.42
2023-02-06T16:32:39.429Z,15.50
2023-02-06T16:37:45.549Z,16.98
2023-02-06T16:42:50.119Z,16.83
2023-02-06T16:47:55.831Z,18.75
2023-02-06T16:53:02.905Z,20.08
2023-02-06T16:58:07.940Z,20.70
2023-02-06T17:03:16.160Z,22.58
2023-02-06T17:08:25.369Z,24.02
2023-02-06T17:13:29.953Z,34.38
2023-02-06T17:18:34.338Z,41.88
2023-02-06T17:23:40.162Z,37.92
2023-02-06T17:28:45.557Z,38.80
2023-02-06T17:33:50.221Z,42.33
2023-02-06T17:38:56.021Z,32.95
2023-02-06T17:44:00.724Z,37.65
2023-02-06T17:49:05.679Z,43.00
2023-02-06T17:54:12.396Z,45.80
2023-02-06T17:59:17.035Z,50.47
2023-02-06T18:04:21.440Z,57.90
2023-02-06T18:09:27.665Z,59.67
2023-02-06T18:14:32.310Z,62.05
2023-02-06T18:19:42.355Z,60.03
2023-02-06T18:24:50.068Z,69.97
2023-02-06T18:29:55.320Z,72.15
2023-02-06T18:35:00.128Z,65.25
2023-02-06T18:40:06.911Z,63.38
2023-02-06T18:45:11.640Z,66.78
2023-02-06T18:50:16.955Z,62.95
2023-02-06T18:55:22.936Z,69.45
2023-02-06T19:00:27.465Z,67.15
2023-02-06T19:05:35.953Z,64.88
2023-02-06T19:10:42.518Z,64.07
2023-02-06T19:15:46.928Z,63.95
2023-02-06T19:20:51.336Z,62.78
2023-02-06T19:25:57.285Z,62.83
2023-02-06T19:31:02.083Z,58.75
2023-02-06T19:36:13.301Z,57.67
2023-02-06T19:41:23.810Z,60.55
2023-02-06T19:46:28.833Z,60.67
2023-02-06T19:51:36.227Z,68.38
2023-02-06T19:56:45.211Z,64.03
2023-02-06T20:01:53.636Z,62.78
2023-02-06T20:06:58.463Z,59.78
2023-02-06T20:12:04.832Z,60.38
2023-02-06T20:17:09.093Z,61.38
2023-02-06T20:22:13.620Z,58.78
2023-02-06T20:27:19.138Z,58.85
2023-02-06T20:32:24.515Z,59.88
2023-02-06T20:37:28.961Z,60.85
2023-02-06T20:42:36.778Z,65.28
2023-02-06T20:47:41.159Z,64.93
2023-02-06T20:52:45.539Z,65.13
2023-02-06T20:57:51.116Z,63.08
2023-02-06T21:02:55.481Z,63.47
2023-02-06T21:07:59.972Z,65.38
2023-02-06T21:13:07.471Z,62.60
2023-02-06T21:18:11.703Z,59.42
2023-02-06T21:23:15.903Z,55.42
2023-02-06T21:28:21.809Z,54.97
2023-02-06T21:33:26.209Z,53.00
2023-02-06T21:38:31.016Z,51.42
2023-02-06T21:43:36.636Z,50.33
2023-02-06T21:48:41.906Z,48.67
2023-02-06T21:53:46.743Z,46.33
2023-02-06T21:58:52.752Z,48.03
2023-02-06T22:03:58.193Z,47.42
2023-02-06T22:09:08.588Z,45.22
2023-02-06T22:14:17.094Z,47.00
2023-02-06T22:19:21.261Z,45.47
2023-02-06T22:24:25.762Z,45.55
2023-02-06T22:29:31.365Z,58.60
2023-02-06T22:34:35.977Z,51.05
2023-02-06T22:39:40.390Z,61.22
2023-02-06T22:44:46.284Z,83.47
2023-02-06T22:49:53.019Z,121.93
2023-02-06T22:54:57.403Z,123.53
2023-02-06T23:00:03.141Z,155.13
2023-02-06T23:05:09.449Z,148.70
2023-02-06T23:10:13.792Z,161.57
2023-02-06T23:15:19.853Z,154.60
2023-02-06T23:20:24.482Z,164.60
2023-02-06T23:25:29.152Z,161.50
2023-02-06T23:30:35.556Z,154.82
2023-02-06T23:35:41.236Z,159.60
2023-02-06T23:40:46.646Z,152.88
2023-02-06T23:45:52.145Z,154.00
2023-02-06T23:50:56.425Z,155.13
2023-02-06T23:56:01.110Z,149.10
